sensor_id;sensor_type;location;lat;lon;timestamp;P1;durP1;ratioP1;P2;durP2;ratioP2
18661;SDS011;61528;49.456;11.098;2023-11-19T00:01:31;2.53;;;2.33;;
18661;SDS011;61528;49.456;11.098;2023-11-19T00:03:58;2.80;;;2.60;;
18661;SDS011;61528;49.456;11.098;2023-11-19T00:06:24;2.70;;;2.50;;
18661;SDS011;61528;49.456;11.098;2023-11-19T00:08:50;5.70;;;3.67;;
18661;SDS011;61528;49.456;11.098;2023-11-19T00:11:16;6.67;;;4.67;;
18661;SDS011;61528;49.456;11.098;2023-11-19T00:13:42;2.97;;;2.60;;
18661;SDS011;61528;49.456;11.098;2023-11-19T00:16:08;2.60;;;2.37;;
18661;SDS011;61528;49.456;11.098;2023-11-19T00:18:35;3.00;;;2.70;;
18661;SDS011;61528;49.456;11.098;2023-11-19T00:21:04;2.93;;;2.70;;
18661;SDS011;61528;49.456;11.098;2023-11-19T00:23:30;3.23;;;2.93;;
18661;SDS011;61528;49.456;11.098;2023-11-19T00:25:57;2.70;;;2.37;;
18661;SDS011;61528;49.456;11.098;2023-11-19T00:28:23;3.27;;;2.93;;
18661;SDS011;61528;49.456;11.098;2023-11-19T00:30:49;2.60;;;2.40;;
18661;SDS011;61528;49.456;11.098;2023-11-19T00:33:15;2.97;;;2.70;;
18661;SDS011;61528;49.456;11.098;2023-11-19T00:35:41;3.00;;;2.70;;
18661;SDS011;61528;49.456;11.098;2023-11-19T00:38:08;3.00;;;2.73;;
18661;SDS011;61528;49.456;11.098;2023-11-19T00:40:34;3.43;;;2.87;;
18661;SDS011;61528;49.456;11.098;2023-11-19T00:43:00;3.20;;;2.90;;
18661;SDS011;61528;49.456;11.098;2023-11-19T00:45:26;2.80;;;2.50;;
18661;SDS011;61528;49.456;11.098;2023-11-19T00:47:53;3.00;;;2.70;;
18661;SDS011;61528;49.456;11.098;2023-11-19T00:50:19;2.53;;;2.33;;
18661;SDS011;61528;49.456;11.098;2023-11-19T00:52:45;2.90;;;2.70;;
18661;SDS011;61528;49.456;11.098;2023-11-19T00:55:12;2.70;;;2.50;;
18661;SDS011;61528;49.456;11.098;2023-11-19T00:57:38;3.30;;;3.00;;
18661;SDS011;61528;49.456;11.098;2023-11-19T01:00:05;3.57;;;2.80;;
18661;SDS011;61528;49.456;11.098;2023-11-19T01:02:43;3.23;;;2.60;;
18661;SDS011;61528;49.456;11.098;2023-11-19T01:05:15;3.73;;;3.10;;
18661;SDS011;61528;49.456;11.098;2023-11-19T01:07:41;2.73;;;2.53;;
18661;SDS011;61528;49.456;11.098;2023-11-19T01:10:08;3.07;;;2.77;;
18661;SDS011;61528;49.456;11.098;2023-11-19T01:12:34;3.30;;;2.80;;
18661;SDS011;61528;49.456;11.098;2023-11-19T01:15:00;3.20;;;2.70;;
18661;SDS011;61528;49.456;11.098;2023-11-19T01:17:26;3.13;;;2.83;;
18661;SDS011;61528;49.456;11.098;2023-11-19T01:19:52;3.10;;;2.90;;
18661;SDS011;61528;49.456;11.098;2023-11-19T01:22:18;3.40;;;2.73;;
18661;SDS011;61528;49.456;11.098;2023-11-19T01:24:44;3.20;;;2.90;;
18661;SDS011;61528;49.456;11.098;2023-11-19T01:27:10;3.23;;;3.00;;
18661;SDS011;61528;49.456;11.098;2023-11-19T01:29:36;3.00;;;2.70;;
18661;SDS011;61528;49.456;11.098;2023-11-19T01:32:03;2.80;;;2.53;;
18661;SDS011;61528;49.456;11.098;2023-11-19T01:34:29;2.73;;;2.50;;
18661;SDS011;61528;49.456;11.098;2023-11-19T01:36:55;3.00;;;2.80;;
18661;SDS011;61528;49.456;11.098;2023-11-19T01:39:23;3.40;;;3.10;;
18661;SDS011;61528;49.456;11.098;2023-11-19T01:41:49;3.17;;;2.83;;
18661;SDS011;61528;49.456;11.098;2023-11-19T01:44:15;4.67;;;2.93;;
18661;SDS011;61528;49.456;11.098;2023-11-19T01:46:42;3.53;;;2.80;;
18661;SDS011;61528;49.456;11.098;2023-11-19T01:49:13;3.40;;;2.67;;
18661;SDS011;61528;49.456;11.098;2023-11-19T01:51:40;3.37;;;3.07;;
18661;SDS011;61528;49.456;11.098;2023-11-19T01:54:07;3.20;;;2.90;;
18661;SDS011;61528;49.456;11.098;2023-11-19T01:56:34;2.97;;;2.77;;
18661;SDS011;61528;49.456;11.098;2023-11-19T01:59:01;3.23;;;2.90;;
18661;SDS011;61528;49.456;11.098;2023-11-19T02:01:28;3.27;;;2.97;;
18661;SDS011;61528;49.456;11.098;2023-11-19T02:03:55;3.97;;;2.80;;
18661;SDS011;61528;49.456;11.098;2023-11-19T02:06:21;3.23;;;2.97;;
18661;SDS011;61528;49.456;11.098;2023-11-19T02:08:48;3.27;;;2.87;;
18661;SDS011;61528;49.456;11.098;2023-11-19T02:11:15;4.37;;;3.20;;
18661;SDS011;61528;49.456;11.098;2023-11-19T02:13:41;3.50;;;3.20;;
18661;SDS011;61528;49.456;11.098;2023-11-19T02:16:08;3.13;;;2.83;;
18661;SDS011;61528;49.456;11.098;2023-11-19T02:18:36;3.20;;;2.90;;
18661;SDS011;61528;49.456;11.098;2023-11-19T02:21:02;3.70;;;3.40;;
18661;SDS011;61528;49.456;11.098;2023-11-19T02:23:30;3.50;;;3.20;;
18661;SDS011;61528;49.456;11.098;2023-11-19T02:26:03;3.40;;;3.10;;
18661;SDS011;61528;49.456;11.098;2023-11-19T02:28:45;3.93;;;3.53;;
18661;SDS011;61528;49.456;11.098;2023-11-19T02:31:11;3.87;;;3.47;;
18661;SDS011;61528;49.456;11.098;2023-11-19T02:33:37;4.97;;;3.50;;
18661;SDS011;61528;49.456;11.098;2023-11-19T02:36:04;3.90;;;3.47;;
18661;SDS011;61528;49.456;11.098;2023-11-19T02:38:32;3.73;;;3.43;;
18661;SDS011;61528;49.456;11.098;2023-11-19T02:41:00;3.60;;;3.30;;
18661;SDS011;61528;49.456;11.098;2023-11-19T02:43:33;4.03;;;3.63;;
18661;SDS011;61528;49.456;11.098;2023-11-19T02:46:01;4.10;;;3.70;;
18661;SDS011;61528;49.456;11.098;2023-11-19T02:48:34;3.80;;;3.43;;
18661;SDS011;61528;49.456;11.098;2023-11-19T02:51:03;4.90;;;3.50;;
18661;SDS011;61528;49.456;11.098;2023-11-19T02:53:30;4.63;;;3.30;;
18661;SDS011;61528;49.456;11.098;2023-11-19T02:55:57;3.80;;;3.30;;
18661;SDS011;61528;49.456;11.098;2023-11-19T02:58:31;3.50;;;3.20;;
18661;SDS011;61528;49.456;11.098;2023-11-19T03:00:59;4.37;;;3.90;;
18661;SDS011;61528;49.456;11.098;2023-11-19T03:03:35;3.83;;;3.43;;
18661;SDS011;61528;49.456;11.098;2023-11-19T03:06:05;3.93;;;3.50;;
18661;SDS011;61528;49.456;11.098;2023-11-19T03:08:34;3.67;;;3.37;;
18661;SDS011;61528;49.456;11.098;2023-11-19T03:11:01;3.30;;;3.00;;
18661;SDS011;61528;49.456;11.098;2023-11-19T03:13:27;3.37;;;3.03;;
18661;SDS011;61528;49.456;11.098;2023-11-19T03:15:53;3.30;;;3.00;;
18661;SDS011;61528;49.456;11.098;2023-11-19T03:18:20;3.67;;;3.33;;
18661;SDS011;61528;49.456;11.098;2023-11-19T03:20:46;4.53;;;3.77;;
18661;SDS011;61528;49.456;11.098;2023-11-19T03:23:12;4.40;;;4.00;;
18661;SDS011;61528;49.456;11.098;2023-11-19T03:25:38;4.80;;;3.60;;
18661;SDS011;61528;49.456;11.098;2023-11-19T03:28:04;4.03;;;3.67;;
18661;SDS011;61528;49.456;11.098;2023-11-19T03:30:31;4.30;;;3.90;;
18661;SDS011;61528;49.456;11.098;2023-11-19T03:32:58;4.73;;;3.80;;
18661;SDS011;61528;49.456;11.098;2023-11-19T03:35:27;4.30;;;3.90;;
18661;SDS011;61528;49.456;11.098;2023-11-19T03:37:54;5.30;;;4.10;;
18661;SDS011;61528;49.456;11.098;2023-11-19T03:40:21;4.70;;;4.20;;
18661;SDS011;61528;49.456;11.098;2023-11-19T03:42:47;4.33;;;3.73;;
18661;SDS011;61528;49.456;11.098;2023-11-19T03:45:13;5.07;;;4.10;;
18661;SDS011;61528;49.456;11.098;2023-11-19T03:47:41;3.87;;;3.57;;
18661;SDS011;61528;49.456;11.098;2023-11-19T03:50:07;4.63;;;4.23;;
18661;SDS011;61528;49.456;11.098;2023-11-19T03:52:34;4.77;;;4.23;;
18661;SDS011;61528;49.456;11.098;2023-11-19T03:55:02;5.10;;;4.33;;
18661;SDS011;61528;49.456;11.098;2023-11-19T03:57:30;6.27;;;4.70;;
18661;SDS011;61528;49.456;11.098;2023-11-19T03:59:56;4.50;;;4.10;;
18661;SDS011;61528;49.456;11.098;2023-11-19T04:02:23;6.47;;;5.17;;
18661;SDS011;61528;49.456;11.098;2023-11-19T04:04:53;4.90;;;4.33;;
18661;SDS011;61528;49.456;11.098;2023-11-19T04:07:20;6.43;;;5.40;;
18661;SDS011;61528;49.456;11.098;2023-11-19T04:09:46;6.93;;;5.40;;
18661;SDS011;61528;49.456;11.098;2023-11-19T04:12:12;7.60;;;5.50;;
18661;SDS011;61528;49.456;11.098;2023-11-19T04:14:38;6.20;;;5.03;;
18661;SDS011;61528;49.456;11.098;2023-11-19T04:17:05;6.67;;;5.90;;
18661;SDS011;61528;49.456;11.098;2023-11-19T04:19:31;6.70;;;5.40;;
18661;SDS011;61528;49.456;11.098;2023-11-19T04:21:58;7.33;;;5.73;;
18661;SDS011;61528;49.456;11.098;2023-11-19T04:24:24;6.97;;;5.83;;
18661;SDS011;61528;49.456;11.098;2023-11-19T04:26:50;6.80;;;6.07;;
18661;SDS011;61528;49.456;11.098;2023-11-19T04:29:17;8.67;;;6.77;;
18661;SDS011;61528;49.456;11.098;2023-11-19T04:31:44;6.50;;;5.80;;
18661;SDS011;61528;49.456;11.098;2023-11-19T04:34:13;7.47;;;6.07;;
18661;SDS011;61528;49.456;11.098;2023-11-19T04:36:39;7.70;;;6.20;;
18661;SDS011;61528;49.456;11.098;2023-11-19T04:39:05;7.93;;;5.90;;
18661;SDS011;61528;49.456;11.098;2023-11-19T04:41:50;6.67;;;5.73;;
18661;SDS011;61528;49.456;11.098;2023-11-19T04:44:19;7.17;;;6.23;;
18661;SDS011;61528;49.456;11.098;2023-11-19T04:46:46;7.83;;;5.90;;
18661;SDS011;61528;49.456;11.098;2023-11-19T04:49:13;8.07;;;6.30;;
18661;SDS011;61528;49.456;11.098;2023-11-19T04:51:43;7.77;;;6.23;;
18661;SDS011;61528;49.456;11.098;2023-11-19T04:54:12;6.70;;;6.00;;
18661;SDS011;61528;49.456;11.098;2023-11-19T04:56:38;7.37;;;6.00;;
18661;SDS011;61528;49.456;11.098;2023-11-19T04:59:05;7.43;;;5.70;;
18661;SDS011;61528;49.456;11.098;2023-11-19T05:01:32;7.93;;;5.73;;
18661;SDS011;61528;49.456;11.098;2023-11-19T05:03:58;7.03;;;5.50;;
18661;SDS011;61528;49.456;11.098;2023-11-19T05:06:28;6.83;;;6.07;;
18661;SDS011;61528;49.456;11.098;2023-11-19T05:08:55;6.03;;;5.40;;
18661;SDS011;61528;49.456;11.098;2023-11-19T05:11:21;7.37;;;5.90;;
18661;SDS011;61528;49.456;11.098;2023-11-19T05:13:48;6.37;;;5.30;;
18661;SDS011;61528;49.456;11.098;2023-11-19T05:16:15;7.10;;;6.13;;
18661;SDS011;61528;49.456;11.098;2023-11-19T05:18:43;7.97;;;5.87;;
18661;SDS011;61528;49.456;11.098;2023-11-19T05:21:09;8.33;;;6.40;;
18661;SDS011;61528;49.456;11.098;2023-11-19T05:23:35;6.80;;;5.70;;
18661;SDS011;61528;49.456;11.098;2023-11-19T05:26:01;7.37;;;6.30;;
18661;SDS011;61528;49.456;11.098;2023-11-19T05:28:28;7.13;;;5.83;;
18661;SDS011;61528;49.456;11.098;2023-11-19T05:30:54;7.73;;;6.60;;
18661;SDS011;61528;49.456;11.098;2023-11-19T05:33:20;7.87;;;6.40;;
18661;SDS011;61528;49.456;11.098;2023-11-19T05:35:47;8.63;;;6.97;;
18661;SDS011;61528;49.456;11.098;2023-11-19T05:38:13;11.03;;;6.97;;
18661;SDS011;61528;49.456;11.098;2023-11-19T05:40:40;8.27;;;6.77;;
18661;SDS011;61528;49.456;11.098;2023-11-19T05:43:07;8.60;;;6.70;;
18661;SDS011;61528;49.456;11.098;2023-11-19T05:45:33;7.93;;;6.60;;
18661;SDS011;61528;49.456;11.098;2023-11-19T05:47:59;9.43;;;6.37;;
18661;SDS011;61528;49.456;11.098;2023-11-19T05:50:25;7.40;;;6.53;;
18661;SDS011;61528;49.456;11.098;2023-11-19T05:52:51;8.37;;;6.00;;
18661;SDS011;61528;49.456;11.098;2023-11-19T05:55:19;8.67;;;6.67;;
18661;SDS011;61528;49.456;11.098;2023-11-19T05:57:45;9.97;;;6.83;;
18661;SDS011;61528;49.456;11.098;2023-11-19T06:00:11;8.83;;;6.90;;
18661;SDS011;61528;49.456;11.098;2023-11-19T06:02:38;7.83;;;6.30;;
18661;SDS011;61528;49.456;11.098;2023-11-19T06:05:05;8.00;;;6.47;;
18661;SDS011;61528;49.456;11.098;2023-11-19T06:07:32;7.93;;;6.57;;
18661;SDS011;61528;49.456;11.098;2023-11-19T06:09:58;7.43;;;6.03;;
18661;SDS011;61528;49.456;11.098;2023-11-19T06:12:25;7.67;;;6.07;;
18661;SDS011;61528;49.456;11.098;2023-11-19T06:14:53;7.90;;;5.70;;
18661;SDS011;61528;49.456;11.098;2023-11-19T06:17:19;8.37;;;6.83;;
18661;SDS011;61528;49.456;11.098;2023-11-19T06:19:45;8.57;;;6.60;;
18661;SDS011;61528;49.456;11.098;2023-11-19T06:22:11;10.43;;;7.07;;
18661;SDS011;61528;49.456;11.098;2023-11-19T06:24:37;8.97;;;6.77;;
18661;SDS011;61528;49.456;11.098;2023-11-19T06:27:03;9.43;;;6.87;;
18661;SDS011;61528;49.456;11.098;2023-11-19T06:29:29;8.93;;;6.80;;
18661;SDS011;61528;49.456;11.098;2023-11-19T06:31:55;7.87;;;6.53;;
18661;SDS011;61528;49.456;11.098;2023-11-19T06:34:22;6.60;;;5.70;;
18661;SDS011;61528;49.456;11.098;2023-11-19T06:36:48;8.77;;;6.10;;
18661;SDS011;61528;49.456;11.098;2023-11-19T06:39:14;7.00;;;5.50;;
18661;SDS011;61528;49.456;11.098;2023-11-19T06:41:46;7.37;;;6.10;;
18661;SDS011;61528;49.456;11.098;2023-11-19T06:44:13;7.70;;;6.63;;
18661;SDS011;61528;49.456;11.098;2023-11-19T06:46:40;7.23;;;5.63;;
18661;SDS011;61528;49.456;11.098;2023-11-19T06:49:06;6.70;;;6.00;;
18661;SDS011;61528;49.456;11.098;2023-11-19T06:51:35;7.73;;;6.27;;
18661;SDS011;61528;49.456;11.098;2023-11-19T06:54:01;8.00;;;5.80;;
18661;SDS011;61528;49.456;11.098;2023-11-19T06:56:27;10.60;;;6.27;;
18661;SDS011;61528;49.456;11.098;2023-11-19T06:58:53;8.23;;;6.40;;
18661;SDS011;61528;49.456;11.098;2023-11-19T07:01:19;7.53;;;6.03;;
18661;SDS011;61528;49.456;11.098;2023-11-19T07:03:46;8.10;;;6.03;;
18661;SDS011;61528;49.456;11.098;2023-11-19T07:06:12;10.37;;;6.50;;
18661;SDS011;61528;49.456;11.098;2023-11-19T07:08:39;7.63;;;5.97;;
18661;SDS011;61528;49.456;11.098;2023-11-19T07:11:07;8.30;;;6.80;;
18661;SDS011;61528;49.456;11.098;2023-11-19T07:13:35;6.30;;;5.40;;
18661;SDS011;61528;49.456;11.098;2023-11-19T07:16:01;5.87;;;5.23;;
18661;SDS011;61528;49.456;11.098;2023-11-19T07:18:27;6.53;;;5.47;;
18661;SDS011;61528;49.456;11.098;2023-11-19T07:20:54;7.57;;;5.17;;
18661;SDS011;61528;49.456;11.098;2023-11-19T07:23:20;6.23;;;5.13;;
18661;SDS011;61528;49.456;11.098;2023-11-19T07:25:47;6.20;;;4.67;;
18661;SDS011;61528;49.456;11.098;2023-11-19T07:28:15;5.20;;;4.63;;
18661;SDS011;61528;49.456;11.098;2023-11-19T07:30:43;5.57;;;4.20;;
18661;SDS011;61528;49.456;11.098;2023-11-19T07:33:09;5.73;;;4.13;;
18661;SDS011;61528;49.456;11.098;2023-11-19T07:35:35;5.13;;;4.27;;
18661;SDS011;61528;49.456;11.098;2023-11-19T07:38:02;5.60;;;4.53;;
18661;SDS011;61528;49.456;11.098;2023-11-19T07:40:28;6.30;;;4.00;;
18661;SDS011;61528;49.456;11.098;2023-11-19T07:42:53;4.30;;;3.90;;
18661;SDS011;61528;49.456;11.098;2023-11-19T07:45:19;4.97;;;3.70;;
18661;SDS011;61528;49.456;11.098;2023-11-19T07:47:46;5.07;;;4.00;;
18661;SDS011;61528;49.456;11.098;2023-11-19T07:50:12;4.50;;;3.57;;
18661;SDS011;61528;49.456;11.098;2023-11-19T07:52:42;3.70;;;3.00;;
18661;SDS011;61528;49.456;11.098;2023-11-19T07:55:08;5.27;;;3.83;;
18661;SDS011;61528;49.456;11.098;2023-11-19T07:57:34;3.83;;;3.40;;
18661;SDS011;61528;49.456;11.098;2023-11-19T08:00:00;3.20;;;2.90;;
18661;SDS011;61528;49.456;11.098;2023-11-19T08:02:27;4.33;;;3.30;;
18661;SDS011;61528;49.456;11.098;2023-11-19T08:04:53;3.83;;;3.43;;
18661;SDS011;61528;49.456;11.098;2023-11-19T08:07:20;3.90;;;3.13;;
18661;SDS011;61528;49.456;11.098;2023-11-19T08:09:47;3.40;;;2.90;;
18661;SDS011;61528;49.456;11.098;2023-11-19T08:12:14;4.40;;;3.10;;
18661;SDS011;61528;49.456;11.098;2023-11-19T08:14:42;3.70;;;3.27;;
18661;SDS011;61528;49.456;11.098;2023-11-19T08:17:10;13.77;;;10.30;;
18661;SDS011;61528;49.456;11.098;2023-11-19T08:19:36;10.70;;;8.23;;
18661;SDS011;61528;49.456;11.098;2023-11-19T08:22:02;8.40;;;6.53;;
18661;SDS011;61528;49.456;11.098;2023-11-19T08:24:28;4.77;;;3.83;;
18661;SDS011;61528;49.456;11.098;2023-11-19T08:26:55;3.73;;;3.20;;
18661;SDS011;61528;49.456;11.098;2023-11-19T08:29:21;1.63;;;1.43;;
18661;SDS011;61528;49.456;11.098;2023-11-19T08:31:48;2.40;;;2.00;;
18661;SDS011;61528;49.456;11.098;2023-11-19T08:34:14;2.30;;;2.10;;
18661;SDS011;61528;49.456;11.098;2023-11-19T08:36:40;1.27;;;1.17;;
18661;SDS011;61528;49.456;11.098;2023-11-19T08:39:07;1.80;;;1.30;;
18661;SDS011;61528;49.456;11.098;2023-11-19T08:41:33;1.20;;;1.07;;
18661;SDS011;61528;49.456;11.098;2023-11-19T08:44:00;1.43;;;1.00;;
18661;SDS011;61528;49.456;11.098;2023-11-19T08:46:26;1.70;;;1.20;;
18661;SDS011;61528;49.456;11.098;2023-11-19T08:48:53;1.07;;;0.93;;
18661;SDS011;61528;49.456;11.098;2023-11-19T08:51:22;1.80;;;1.57;;
18661;SDS011;61528;49.456;11.098;2023-11-19T08:53:50;1.43;;;1.33;;
18661;SDS011;61528;49.456;11.098;2023-11-19T08:56:19;1.93;;;1.60;;
18661;SDS011;61528;49.456;11.098;2023-11-19T08:58:45;1.80;;;1.20;;
18661;SDS011;61528;49.456;11.098;2023-11-19T09:01:11;3.17;;;2.60;;
18661;SDS011;61528;49.456;11.098;2023-11-19T09:03:37;2.90;;;1.40;;
18661;SDS011;61528;49.456;11.098;2023-11-19T09:06:04;1.73;;;1.13;;
18661;SDS011;61528;49.456;11.098;2023-11-19T09:08:30;2.97;;;1.80;;
18661;SDS011;61528;49.456;11.098;2023-11-19T09:10:56;1.87;;;1.30;;
18661;SDS011;61528;49.456;11.098;2023-11-19T09:13:23;2.63;;;2.10;;
18661;SDS011;61528;49.456;11.098;2023-11-19T09:15:49;2.10;;;2.00;;
18661;SDS011;61528;49.456;11.098;2023-11-19T09:18:15;1.40;;;1.30;;
18661;SDS011;61528;49.456;11.098;2023-11-19T09:20:41;1.13;;;1.00;;
18661;SDS011;61528;49.456;11.098;2023-11-19T09:23:08;3.13;;;1.23;;
18661;SDS011;61528;49.456;11.098;2023-11-19T09:25:34;1.30;;;1.20;;
18661;SDS011;61528;49.456;11.098;2023-11-19T09:28:00;7.33;;;6.63;;
18661;SDS011;61528;49.456;11.098;2023-11-19T09:30:26;3.43;;;1.17;;
18661;SDS011;61528;49.456;11.098;2023-11-19T09:32:53;0.93;;;0.80;;
18661;SDS011;61528;49.456;11.098;2023-11-19T09:35:19;1.20;;;0.90;;
18661;SDS011;61528;49.456;11.098;2023-11-19T09:37:45;1.57;;;1.07;;
18661;SDS011;61528;49.456;11.098;2023-11-19T09:40:12;2.10;;;0.80;;
18661;SDS011;61528;49.456;11.098;2023-11-19T09:42:42;1.03;;;0.90;;
18661;SDS011;61528;49.456;11.098;2023-11-19T09:45:15;2.50;;;1.70;;
18661;SDS011;61528;49.456;11.098;2023-11-19T09:47:45;2.73;;;1.73;;
18661;SDS011;61528;49.456;11.098;2023-11-19T09:50:18;1.63;;;0.90;;
18661;SDS011;61528;49.456;11.098;2023-11-19T09:52:45;2.43;;;1.00;;
18661;SDS011;61528;49.456;11.098;2023-11-19T09:55:11;0.83;;;0.80;;
18661;SDS011;61528;49.456;11.098;2023-11-19T09:57:40;1.23;;;0.73;;
18661;SDS011;61528;49.456;11.098;2023-11-19T10:00:09;2.57;;;0.93;;
18661;SDS011;61528;49.456;11.098;2023-11-19T10:02:36;1.77;;;0.93;;
18661;SDS011;61528;49.456;11.098;2023-11-19T10:05:06;1.87;;;1.07;;
18661;SDS011;61528;49.456;11.098;2023-11-19T10:07:33;1.33;;;0.70;;
18661;SDS011;61528;49.456;11.098;2023-11-19T10:10:00;1.67;;;0.90;;
18661;SDS011;61528;49.456;11.098;2023-11-19T10:12:27;3.47;;;0.90;;
18661;SDS011;61528;49.456;11.098;2023-11-19T10:14:55;1.67;;;0.83;;
18661;SDS011;61528;49.456;11.098;2023-11-19T10:17:22;1.60;;;0.90;;
18661;SDS011;61528;49.456;11.098;2023-11-19T10:19:54;3.10;;;0.87;;
18661;SDS011;61528;49.456;11.098;2023-11-19T10:22:22;3.00;;;1.10;;
18661;SDS011;61528;49.456;11.098;2023-11-19T10:24:49;2.50;;;1.20;;
18661;SDS011;61528;49.456;11.098;2023-11-19T10:27:17;1.80;;;1.00;;
18661;SDS011;61528;49.456;11.098;2023-11-19T10:29:45;0.90;;;0.83;;
18661;SDS011;61528;49.456;11.098;2023-11-19T10:32:12;1.10;;;1.00;;
18661;SDS011;61528;49.456;11.098;2023-11-19T10:34:40;3.07;;;1.20;;
18661;SDS011;61528;49.456;11.098;2023-11-19T10:37:07;1.90;;;1.00;;
18661;SDS011;61528;49.456;11.098;2023-11-19T10:39:51;3.13;;;1.10;;
18661;SDS011;61528;49.456;11.098;2023-11-19T10:42:19;3.20;;;1.17;;
18661;SDS011;61528;49.456;11.098;2023-11-19T10:44:45;1.00;;;0.90;;
18661;SDS011;61528;49.456;11.098;2023-11-19T10:47:13;2.10;;;1.07;;
18661;SDS011;61528;49.456;11.098;2023-11-19T10:49:42;2.83;;;0.90;;
18661;SDS011;61528;49.456;11.098;2023-11-19T10:52:09;2.90;;;0.90;;
18661;SDS011;61528;49.456;11.098;2023-11-19T10:54:35;1.63;;;1.00;;
18661;SDS011;61528;49.456;11.098;2023-11-19T10:57:03;1.07;;;1.00;;
18661;SDS011;61528;49.456;11.098;2023-11-19T10:59:31;1.70;;;1.10;;
18661;SDS011;61528;49.456;11.098;2023-11-19T11:01:57;2.27;;;1.70;;
18661;SDS011;61528;49.456;11.098;2023-11-19T11:04:26;1.20;;;1.10;;
18661;SDS011;61528;49.456;11.098;2023-11-19T11:06:56;1.67;;;1.20;;
18661;SDS011;61528;49.456;11.098;2023-11-19T11:09:27;1.73;;;0.90;;
18661;SDS011;61528;49.456;11.098;2023-11-19T11:11:54;2.00;;;1.00;;
18661;SDS011;61528;49.456;11.098;2023-11-19T11:14:20;7.53;;;6.83;;
18661;SDS011;61528;49.456;11.098;2023-11-19T11:16:47;2.93;;;1.57;;
18661;SDS011;61528;49.456;11.098;2023-11-19T11:19:15;2.93;;;1.20;;
18661;SDS011;61528;49.456;11.098;2023-11-19T11:21:44;1.97;;;1.00;;
18661;SDS011;61528;49.456;11.098;2023-11-19T11:32:11;1.90;;;1.10;;
18661;SDS011;61528;49.456;11.098;2023-11-19T11:39:22;3.50;;;1.23;;
18661;SDS011;61528;49.456;11.098;2023-11-19T11:42:05;3.07;;;1.00;;
18661;SDS011;61528;49.456;11.098;2023-11-19T11:47:20;2.00;;;0.80;;
18661;SDS011;61528;49.456;11.098;2023-11-19T11:49:46;3.07;;;0.97;;
18661;SDS011;61528;49.456;11.098;2023-11-19T11:52:13;2.70;;;1.20;;
18661;SDS011;61528;49.456;11.098;2023-11-19T11:54:41;1.40;;;0.90;;
18661;SDS011;61528;49.456;11.098;2023-11-19T11:57:10;2.00;;;1.10;;
18661;SDS011;61528;49.456;11.098;2023-11-19T12:02:07;1.70;;;0.90;;
18661;SDS011;61528;49.456;11.098;2023-11-19T12:04:36;2.53;;;1.00;;
18661;SDS011;61528;49.456;11.098;2023-11-19T12:07:07;2.03;;;1.00;;
18661;SDS011;61528;49.456;11.098;2023-11-19T12:09:36;2.40;;;1.00;;
18661;SDS011;61528;49.456;11.098;2023-11-19T12:17:46;2.17;;;0.90;;
18661;SDS011;61528;49.456;11.098;2023-11-19T12:20:14;2.80;;;1.13;;
18661;SDS011;61528;49.456;11.098;2023-11-19T12:22:42;1.73;;;1.10;;
18661;SDS011;61528;49.456;11.098;2023-11-19T12:25:10;3.40;;;1.27;;
18661;SDS011;61528;49.456;11.098;2023-11-19T12:27:39;1.30;;;1.00;;
18661;SDS011;61528;49.456;11.098;2023-11-19T12:30:05;1.63;;;1.30;;
18661;SDS011;61528;49.456;11.098;2023-11-19T12:32:41;4.63;;;1.40;;
18661;SDS011;61528;49.456;11.098;2023-11-19T12:35:09;2.07;;;0.90;;
18661;SDS011;61528;49.456;11.098;2023-11-19T12:37:41;2.03;;;1.10;;
18661;SDS011;61528;49.456;11.098;2023-11-19T12:40:14;2.03;;;1.10;;
18661;SDS011;61528;49.456;11.098;2023-11-19T12:42:43;2.20;;;1.20;;
18661;SDS011;61528;49.456;11.098;2023-11-19T12:45:09;2.90;;;1.00;;
18661;SDS011;61528;49.456;11.098;2023-11-19T12:47:36;1.40;;;0.93;;
18661;SDS011;61528;49.456;11.098;2023-11-19T12:50:03;2.83;;;1.03;;
18661;SDS011;61528;49.456;11.098;2023-11-19T12:52:29;1.53;;;1.00;;
18661;SDS011;61528;49.456;11.098;2023-11-19T12:54:56;1.80;;;1.20;;
18661;SDS011;61528;49.456;11.098;2023-11-19T13:00:23;2.20;;;1.10;;
18661;SDS011;61528;49.456;11.098;2023-11-19T13:02:53;2.57;;;1.00;;
18661;SDS011;61528;49.456;11.098;2023-11-19T13:07:47;3.33;;;1.30;;
18661;SDS011;61528;49.456;11.098;2023-11-19T13:10:14;4.20;;;1.17;;
18661;SDS011;61528;49.456;11.098;2023-11-19T13:12:40;3.77;;;0.97;;
18661;SDS011;61528;49.456;11.098;2023-11-19T13:15:22;1.33;;;1.20;;
18661;SDS011;61528;49.456;11.098;2023-11-19T13:17:49;1.40;;;1.00;;
18661;SDS011;61528;49.456;11.098;2023-11-19T13:20:16;2.43;;;0.90;;
18661;SDS011;61528;49.456;11.098;2023-11-19T13:22:58;1.83;;;1.00;;
18661;SDS011;61528;49.456;11.098;2023-11-19T13:25:25;2.50;;;1.10;;
18661;SDS011;61528;49.456;11.098;2023-11-19T13:27:52;1.13;;;1.03;;
18661;SDS011;61528;49.456;11.098;2023-11-19T13:30:19;2.67;;;1.00;;
18661;SDS011;61528;49.456;11.098;2023-11-19T13:32:45;1.67;;;0.97;;
18661;SDS011;61528;49.456;11.098;2023-11-19T13:35:12;2.33;;;1.00;;
18661;SDS011;61528;49.456;11.098;2023-11-19T13:37:39;1.47;;;0.80;;
18661;SDS011;61528;49.456;11.098;2023-11-19T13:40:09;1.47;;;0.80;;
18661;SDS011;61528;49.456;11.098;2023-11-19T13:45:23;1.30;;;0.93;;
18661;SDS011;61528;49.456;11.098;2023-11-19T13:47:50;3.53;;;1.03;;
18661;SDS011;61528;49.456;11.098;2023-11-19T13:50:17;1.50;;;0.80;;
18661;SDS011;61528;49.456;11.098;2023-11-19T13:52:44;1.87;;;1.10;;
18661;SDS011;61528;49.456;11.098;2023-11-19T13:55:12;1.97;;;1.10;;
18661;SDS011;61528;49.456;11.098;2023-11-19T13:57:39;2.33;;;1.30;;
18661;SDS011;61528;49.456;11.098;2023-11-19T14:00:07;3.17;;;1.10;;
18661;SDS011;61528;49.456;11.098;2023-11-19T14:02:39;2.87;;;1.00;;
18661;SDS011;61528;49.456;11.098;2023-11-19T14:05:06;2.37;;;1.00;;
18661;SDS011;61528;49.456;11.098;2023-11-19T14:07:33;1.80;;;0.80;;
18661;SDS011;61528;49.456;11.098;2023-11-19T14:09:59;1.63;;;0.90;;
18661;SDS011;61528;49.456;11.098;2023-11-19T14:12:32;1.37;;;0.73;;
18661;SDS011;61528;49.456;11.098;2023-11-19T14:14:59;1.53;;;1.00;;
18661;SDS011;61528;49.456;11.098;2023-11-19T14:17:26;1.60;;;0.90;;
18661;SDS011;61528;49.456;11.098;2023-11-19T14:19:52;3.80;;;0.90;;
18661;SDS011;61528;49.456;11.098;2023-11-19T14:22:18;2.03;;;0.90;;
18661;SDS011;61528;49.456;11.098;2023-11-19T14:24:45;1.13;;;0.73;;
18661;SDS011;61528;49.456;11.098;2023-11-19T14:27:11;2.10;;;0.80;;
18661;SDS011;61528;49.456;11.098;2023-11-19T14:29:37;2.80;;;1.00;;
18661;SDS011;61528;49.456;11.098;2023-11-19T14:32:05;1.70;;;0.70;;
18661;SDS011;61528;49.456;11.098;2023-11-19T14:34:31;3.77;;;1.10;;
18661;SDS011;61528;49.456;11.098;2023-11-19T14:37:00;2.47;;;1.00;;
18661;SDS011;61528;49.456;11.098;2023-11-19T14:39:27;1.43;;;0.97;;
18661;SDS011;61528;49.456;11.098;2023-11-19T14:41:56;2.37;;;1.33;;
18661;SDS011;61528;49.456;11.098;2023-11-19T14:44:29;3.27;;;1.43;;
18661;SDS011;61528;49.456;11.098;2023-11-19T14:46:56;2.47;;;1.17;;
18661;SDS011;61528;49.456;11.098;2023-11-19T14:49:22;1.97;;;1.10;;
18661;SDS011;61528;49.456;11.098;2023-11-19T14:51:50;1.60;;;1.10;;
18661;SDS011;61528;49.456;11.098;2023-11-19T14:54:16;1.43;;;0.90;;
18661;SDS011;61528;49.456;11.098;2023-11-19T14:56:43;2.50;;;1.20;;
18661;SDS011;61528;49.456;11.098;2023-11-19T14:59:09;3.43;;;1.73;;
18661;SDS011;61528;49.456;11.098;2023-11-19T15:01:37;2.37;;;1.53;;
18661;SDS011;61528;49.456;11.098;2023-11-19T15:04:03;1.63;;;1.00;;
18661;SDS011;61528;49.456;11.098;2023-11-19T15:06:30;2.23;;;1.40;;